createdAt,value
2022-11-03T00:01:54.024Z,33.60
2022-11-03T00:04:41.238Z,30.38
2022-11-03T00:07:28.427Z,28.17
2022-11-03T00:10:15.802Z,29.75
2022-11-03T00:13:03.001Z,27.20
2022-11-03T00:15:50.497Z,31.00
2022-11-03T00:23:49.751Z,34.45
2022-11-03T00:26:37.293Z,31.75
2022-11-03T00:29:26.524Z,36.15
2022-11-03T00:32:14.782Z,26.77
2022-11-03T00:35:01.858Z,31.70
2022-11-03T00:37:48.911Z,27.55
2022-11-03T00:40:36.075Z,32.92
2022-11-03T00:43:24.731Z,28.13
2022-11-03T00:46:11.993Z,26.20
2022-11-03T00:48:59.129Z,26.85
2022-11-03T00:51:46.248Z,28.63
2022-11-03T00:54:33.492Z,29.83
2022-11-03T00:57:20.669Z,26.90
2022-11-03T01:00:08.390Z,27.48
2022-11-03T01:02:58.194Z,33.40
2022-11-03T01:06:03.969Z,24.80
2022-11-03T01:08:51.121Z,41.95
2022-11-03T01:11:44.707Z,27.80
2022-11-03T01:14:35.397Z,34.63
2022-11-03T01:17:27.786Z,26.98
2022-11-03T01:20:15.110Z,26.42
2022-11-03T01:23:02.624Z,28.70
2022-11-03T01:25:50.253Z,25.13
2022-11-03T01:28:38.803Z,29.85
2022-11-03T01:31:27.523Z,23.65
2022-11-03T01:34:21.672Z,25.67
2022-11-03T01:37:11.341Z,32.72
2022-11-03T01:40:00.603Z,30.48
2022-11-03T01:42:47.707Z,36.63
2022-11-03T01:45:37.460Z,25.15
2022-11-03T01:48:25.006Z,37.15
2022-11-03T01:51:17.183Z,25.98
2022-11-03T01:54:09.947Z,32.22
2022-11-03T01:56:58.857Z,34.05
2022-11-03T01:59:48.072Z,32.92
2022-11-03T02:02:35.413Z,34.65
2022-11-03T02:05:25.673Z,32.75
2022-11-03T02:08:24.846Z,28.70
2022-11-03T02:11:32.005Z,36.63
2022-11-03T02:14:21.244Z,31.08
2022-11-03T02:17:12.396Z,29.23
2022-11-03T02:20:11.458Z,34.58
2022-11-03T02:23:12.527Z,36.38
2022-11-03T02:26:00.643Z,33.60
2022-11-03T02:28:48.888Z,37.78
2022-11-03T02:31:42.537Z,45.53
2022-11-03T02:35:09.964Z,42.70
2022-11-03T02:38:01.102Z,51.85
2022-11-03T02:40:53.319Z,49.75
2022-11-03T02:43:41.891Z,38.15
2022-11-03T02:46:32.087Z,40.03
2022-11-03T02:49:19.214Z,44.65
2022-11-03T02:52:09.405Z,53.55
2022-11-03T02:54:58.252Z,34.40
2022-11-03T02:58:10.967Z,42.35
2022-11-03T03:01:37.340Z,40.47
2022-11-03T03:04:30.617Z,30.17
2022-11-03T03:07:26.527Z,40.20
2022-11-03T03:10:19.870Z,39.60
2022-11-03T03:13:08.566Z,39.17
2022-11-03T03:16:14.756Z,34.20
2022-11-03T03:19:13.106Z,31.95
2022-11-03T03:22:06.247Z,32.72
2022-11-03T03:25:01.044Z,31.90
2022-11-03T03:27:55.845Z,31.55
2022-11-03T03:30:45.660Z,31.83
2022-11-03T03:33:36.956Z,36.42
2022-11-03T03:36:26.400Z,41.45
2022-11-03T03:39:15.488Z,47.97
2022-11-03T03:42:04.947Z,45.72
2022-11-03T03:44:55.476Z,44.95
2022-11-03T03:47:43.476Z,41.10
2022-11-03T03:50:36.631Z,43.28
2022-11-03T03:53:29.516Z,50.70
2022-11-03T03:56:18.024Z,47.60
2022-11-03T03:59:07.630Z,39.30
2022-11-03T04:01:55.854Z,39.95
2022-11-03T04:04:43.101Z,34.75
2022-11-03T04:07:48.648Z,50.33
2022-11-03T04:10:38.540Z,37.45
2022-11-03T04:13:44.246Z,34.20
2022-11-03T04:16:52.234Z,34.67
2022-11-03T04:19:59.874Z,38.50
2022-11-03T04:22:49.359Z,45.22
2022-11-03T04:25:36.455Z,31.55
2022-11-03T04:28:27.192Z,44.17
2022-11-03T04:31:16.547Z,41.88
2022-11-03T04:34:12.147Z,51.20
2022-11-03T04:36:59.422Z,38.92
2022-11-03T04:39:46.508Z,40.35
2022-11-03T04:42:34.865Z,36.30
2022-11-03T04:45:30.600Z,37.38
2022-11-03T04:48:25.179Z,42.13
2022-11-03T04:51:18.475Z,46.10
2022-11-03T04:54:23.115Z,41.28
2022-11-03T04:57:17.732Z,44.33
2022-11-03T05:00:07.389Z,54.75
2022-11-03T05:02:56.329Z,48.00
2022-11-03T05:05:44.038Z,49.88
2022-11-03T05:08:31.099Z,51.85
2022-11-03T05:11:44.851Z,47.67
2022-11-03T05:14:32.713Z,46.95
2022-11-03T05:17:26.307Z,56.30
2022-11-03T05:20:37.579Z,50.80
2022-11-03T05:23:28.218Z,58.63
2022-11-03T05:26:28.232Z,48.58
2022-11-03T05:29:19.789Z,50.88
2022-11-03T05:32:22.071Z,47.97
2022-11-03T05:35:21.340Z,54.70
2022-11-03T05:38:14.756Z,59.78
2022-11-03T05:41:02.120Z,53.83
2022-11-03T05:44:02.208Z,54.90
2022-11-03T05:46:49.335Z,51.58
2022-11-03T05:49:36.481Z,55.42
2022-11-03T05:52:26.586Z,56.33
2022-11-03T05:55:42.527Z,42.35
2022-11-03T05:58:35.690Z,44.65
2022-11-03T06:01:34.798Z,46.85
2022-11-03T06:04:33.264Z,41.78
2022-11-03T06:07:26.128Z,45.88
2022-11-03T06:10:31.852Z,52.95
2022-11-03T06:13:31.168Z,56.60
2022-11-03T06:16:23.439Z,58.38
2022-11-03T06:19:25.390Z,79.38
2022-11-03T06:22:37.038Z,61.58
2022-11-03T06:25:33.349Z,57.08
2022-11-03T06:28:40.855Z,60.10
2022-11-03T06:31:32.787Z,59.38
2022-11-03T06:34:50.431Z,38.53
2022-11-03T06:37:37.662Z,50.78
2022-11-03T06:40:35.973Z,53.83
2022-11-03T06:43:28.766Z,57.70
2022-11-03T06:46:22.683Z,57.17
2022-11-03T06:49:35.022Z,62.70
2022-11-03T06:52:37.826Z,56.30
2022-11-03T06:58:24.075Z,57.05
2022-11-03T07:01:22.830Z,60.88
2022-11-03T07:04:33.940Z,52.58
2022-11-03T07:07:25.624Z,62.17
2022-11-03T07:10:15.730Z,63.25
2022-11-03T07:13:30.864Z,52.28
2022-11-03T07:16:27.877Z,44.88
2022-11-03T07:19:24.657Z,70.45
2022-11-03T07:22:29.866Z,53.95
2022-11-03T07:25:20.322Z,58.67
2022-11-03T07:28:11.918Z,49.45
2022-11-03T07:31:01.515Z,53.33
2022-11-03T07:33:48.831Z,47.35
2022-11-03T07:36:35.905Z,38.88
2022-11-03T07:39:23.373Z,49.72
2022-11-03T07:42:19.977Z,40.22
2022-11-03T07:45:35.805Z,32.30
2022-11-03T07:48:47.663Z,40.72
2022-11-03T07:51:40.819Z,36.17
2022-11-03T07:54:37.128Z,36.60
2022-11-03T07:57:32.349Z,30.40
2022-11-03T08:00:22.796Z,30.10
2022-11-03T08:03:32.939Z,28.92
2022-11-03T08:06:20.285Z,28.98
2022-11-03T08:09:07.386Z,19.60
2022-11-03T08:11:56.822Z,21.70
2022-11-03T08:14:46.689Z,19.50
2022-11-03T08:17:34.433Z,24.88
2022-11-03T08:20:21.618Z,15.45
2022-11-03T08:23:25.118Z,17.15
2022-11-03T08:26:13.176Z,16.70
2022-11-03T08:29:03.122Z,14.43
2022-11-03T08:31:52.728Z,14.63
2022-11-03T08:34:40.188Z,13.20
2022-11-03T08:37:27.340Z,17.40
2022-11-03T08:40:14.458Z,18.73
2022-11-03T08:43:05.952Z,15.57
2022-11-03T08:45:59.522Z,16.40
2022-11-03T08:48:53.001Z,11.57
2022-11-03T08:51:44.680Z,10.63
2022-11-03T08:54:32.260Z,14.90
2022-11-03T08:57:19.720Z,8.18
2022-11-03T09:00:10.362Z,13.63
2022-11-03T09:02:57.644Z,13.48
2022-11-03T09:05:45.117Z,17.17
2022-11-03T09:11:39.453Z,16.83
2022-11-03T09:14:26.946Z,10.38
2022-11-03T09:17:14.392Z,15.90
2022-11-03T09:20:01.824Z,11.15
2022-11-03T09:22:51.659Z,6.72
2022-11-03T09:25:39.003Z,6.93
2022-11-03T09:28:26.296Z,10.45
2022-11-03T09:31:15.749Z,8.60
2022-11-03T09:34:03.330Z,8.30
2022-11-03T09:36:53.364Z,9.10
2022-11-03T09:39:48.243Z,13.02
2022-11-03T09:42:39.001Z,13.38
2022-11-03T09:45:26.507Z,13.68
2022-11-03T09:48:14.244Z,13.23
2022-11-03T09:51:02.139Z,13.07
2022-11-03T09:53:49.813Z,11.05
2022-11-03T09:56:40.351Z,10.65
2022-11-03T09:59:33.571Z,13.63
2022-11-03T10:02:24.343Z,13.15
2022-11-03T10:08:09.931Z,14.32
2022-11-03T10:11:00.466Z,12.18
2022-11-03T10:13:53.904Z,14.77
2022-11-03T10:16:42.808Z,13.35
2022-11-03T10:19:30.298Z,13.05
2022-11-03T10:22:19.940Z,13.05
2022-11-03T10:25:44.352Z,16.15
2022-11-03T10:28:31.658Z,14.88
2022-11-03T10:31:20.929Z,11.05
2022-11-03T10:34:37.629Z,15.07
2022-11-03T10:37:26.528Z,12.15
2022-11-03T10:40:47.754Z,12.85
2022-11-03T10:43:36.204Z,16.48
2022-11-03T10:46:36.961Z,11.35
2022-11-03T10:49:32.410Z,12.70
2022-11-03T10:52:25.276Z,12.35
2022-11-03T10:55:13.905Z,11.35
2022-11-03T10:58:01.216Z,11.00
2022-11-03T11:00:48.603Z,7.45
2022-11-03T11:03:42.824Z,15.65
2022-11-03T11:06:31.446Z,8.25
2022-11-03T11:09:31.411Z,11.43
2022-11-03T11:12:22.415Z,12.45
2022-11-03T11:15:35.777Z,12.25
2022-11-03T11:18:31.866Z,6.03
2022-11-03T11:21:19.345Z,13.32
2022-11-03T11:24:10.788Z,10.85
2022-11-03T11:26:59.320Z,8.48
2022-11-03T11:29:46.556Z,10.00
2022-11-03T11:32:41.618Z,10.18
2022-11-03T11:43:19.107Z,6.53
2022-11-03T11:46:50.305Z,6.68
2022-11-03T11:49:42.125Z,7.00
2022-11-03T11:52:30.221Z,10.13
2022-11-03T11:55:40.768Z,5.20
2022-11-03T11:58:33.533Z,6.40
2022-11-03T12:01:34.726Z,7.35
2022-11-03T12:04:31.692Z,7.35
2022-11-03T12:07:34.865Z,6.90
2022-11-03T12:13:44.603Z,10.10
2022-11-03T12:16:33.013Z,9.32
2022-11-03T12:19:35.340Z,7.05
2022-11-03T12:22:28.235Z,11.60
2022-11-03T12:25:37.176Z,14.32
2022-11-03T12:28:38.444Z,9.77
2022-11-03T12:31:32.980Z,8.60
2022-11-03T12:34:28.151Z,11.45
2022-11-03T12:37:16.009Z,7.68
2022-11-03T12:40:07.507Z,8.65
2022-11-03T12:42:54.614Z,10.85
2022-11-03T12:45:41.906Z,10.00
2022-11-03T12:48:29.347Z,5.72
2022-11-03T12:51:18.606Z,10.20
2022-11-03T12:54:05.745Z,9.02
2022-11-03T12:56:53.560Z,11.13
2022-11-03T12:59:46.329Z,7.90
2022-11-03T13:05:21.876Z,10.43
2022-11-03T13:08:12.558Z,13.25
2022-11-03T13:11:29.963Z,8.18
2022-11-03T13:14:17.218Z,8.98
2022-11-03T13:17:06.927Z,8.63
2022-11-03T13:19:54.908Z,9.25
2022-11-03T13:22:42.201Z,8.52
2022-11-03T13:25:29.439Z,7.88
2022-11-03T13:28:16.928Z,10.65
2022-11-03T13:31:06.290Z,8.30
2022-11-03T13:33:53.409Z,12.95
2022-11-03T13:36:40.531Z,7.50
2022-11-03T13:39:29.784Z,10.55
2022-11-03T13:42:17.099Z,7.13
2022-11-03T13:45:05.576Z,11.18
2022-11-03T13:48:29.059Z,7.70
2022-11-03T13:51:00.693Z,13.68
2022-11-03T14:00:05.727Z,7.18
2022-11-03T14:06:02.689Z,11.85
2022-11-03T14:08:49.916Z,10.95
2022-11-03T14:11:58.167Z,10.52
2022-11-03T14:14:45.369Z,9.70
2022-11-03T14:17:33.675Z,12.80
2022-11-03T14:23:18.907Z,9.85
2022-11-03T14:26:21.534Z,7.47
2022-11-03T14:29:12.189Z,9.55
2022-11-03T14:31:59.742Z,6.75
2022-11-03T14:34:47.819Z,8.40
2022-11-03T14:37:35.296Z,9.95
2022-11-03T14:40:43.115Z,8.68
2022-11-03T14:43:34.946Z,11.55
2022-11-03T14:46:24.989Z,10.52
2022-11-03T14:49:12.596Z,10.18
2022-11-03T14:52:01.829Z,14.85
2022-11-03T14:54:49.495Z,12.27
2022-11-03T14:57:36.939Z,13.98
2022-11-03T15:00:26.670Z,10.45
2022-11-03T15:03:13.907Z,14.95
2022-11-03T15:06:01.095Z,30.10
2022-11-03T15:08:53.456Z,21.45
2022-11-03T15:11:44.512Z,16.58
2022-11-03T15:14:31.898Z,14.73
2022-11-03T15:17:21.292Z,25.38
2022-11-03T15:20:09.494Z,18.73
2022-11-03T15:26:03.934Z,17.15
2022-11-03T15:28:51.092Z,18.92
2022-11-03T15:31:46.143Z,15.43
2022-11-03T15:34:34.859Z,11.93
2022-11-03T15:37:21.921Z,17.25
2022-11-03T15:40:12.569Z,12.32
2022-11-03T15:43:03.018Z,12.50
2022-11-03T15:45:50.484Z,16.52
2022-11-03T15:48:38.765Z,13.45
2022-11-03T15:51:26.308Z,17.58
2022-11-03T15:54:28.942Z,19.95
2022-11-03T15:57:16.184Z,11.45
2022-11-03T16:00:06.743Z,8.65
2022-11-03T16:03:59.445Z,12.20
2022-11-03T16:07:07.726Z,12.18
2022-11-03T16:09:54.016Z,10.38
2022-11-03T16:12:44.229Z,15.80
2022-11-03T16:15:31.437Z,16.42
2022-11-03T16:18:19.216Z,12.55
2022-11-03T16:21:06.424Z,12.75
2022-11-03T16:23:53.804Z,11.20
2022-11-03T16:26:43.386Z,10.25
2022-11-03T16:29:30.588Z,12.68
2022-11-03T16:32:17.800Z,7.63
2022-11-03T16:35:05.937Z,58.95
2022-11-03T16:38:01.028Z,42.92
2022-11-03T16:40:50.555Z,15.88
2022-11-03T16:43:37.839Z,12.55
2022-11-03T16:46:24.969Z,10.70
2022-11-03T16:49:12.357Z,13.32
2022-11-03T16:51:59.671Z,12.27
2022-11-03T16:54:49.622Z,13.60
2022-11-03T16:57:36.817Z,16.30
2022-11-03T17:00:28.230Z,20.13
2022-11-03T17:03:16.035Z,18.60
2022-11-03T17:06:03.282Z,11.90
2022-11-03T17:08:53.498Z,18.73
2022-11-03T17:11:41.442Z,13.77
2022-11-03T17:14:30.764Z,9.35
2022-11-03T17:17:18.204Z,17.52
2022-11-03T17:20:10.653Z,12.07
2022-11-03T17:22:58.102Z,8.88
2022-11-03T17:25:46.036Z,9.63
2022-11-03T17:28:33.257Z,9.13
2022-11-03T17:31:22.878Z,13.63
2022-11-03T17:34:13.347Z,10.90
2022-11-03T17:37:00.953Z,15.60
2022-11-03T17:39:48.125Z,16.40
2022-11-03T17:42:37.642Z,12.50
2022-11-03T17:45:26.811Z,23.33
2022-11-03T17:48:14.546Z,8.02
2022-11-03T17:51:05.667Z,11.85
2022-11-03T17:53:53.260Z,14.07
2022-11-03T17:56:42.911Z,12.65
2022-11-03T17:59:30.137Z,10.93
2022-11-03T18:02:30.811Z,10.00
2022-11-03T18:05:27.289Z,9.40
2022-11-03T18:08:16.435Z,13.15
2022-11-03T18:11:04.017Z,12.45
2022-11-03T18:13:51.138Z,14.38
2022-11-03T18:16:40.864Z,11.80
2022-11-03T18:19:30.701Z,15.52
2022-11-03T18:22:19.955Z,25.42
2022-11-03T18:25:14.551Z,12.32
2022-11-03T18:28:19.325Z,10.77
2022-11-03T18:31:34.063Z,11.25
2022-11-03T18:34:24.757Z,12.10
2022-11-03T18:37:12.812Z,11.88
2022-11-03T18:40:02.638Z,9.68
2022-11-03T18:42:49.839Z,11.25
2022-11-03T18:45:39.378Z,11.15
2022-11-03T18:48:27.691Z,11.82
2022-11-03T18:51:15.112Z,8.90
2022-11-03T18:54:02.444Z,11.43
2022-11-03T18:56:50.497Z,10.95
2022-11-03T18:59:43.159Z,11.30
2022-11-03T19:02:43.448Z,11.38
2022-11-03T19:05:31.127Z,11.07
2022-11-03T19:08:44.197Z,12.38
2022-11-03T19:11:31.412Z,12.65
2022-11-03T19:14:35.917Z,15.13
2022-11-03T19:17:25.630Z,10.77
2022-11-03T19:20:18.858Z,13.27
2022-11-03T19:23:10.476Z,12.63
2022-11-03T19:25:59.946Z,17.42
2022-11-03T19:28:54.388Z,16.70
2022-11-03T19:31:47.100Z,15.25
2022-11-03T19:37:25.074Z,16.75
2022-11-03T19:40:17.011Z,16.20
2022-11-03T19:43:10.441Z,14.35
2022-11-03T19:45:57.876Z,14.35
2022-11-03T19:48:45.269Z,12.38
2022-11-03T19:51:38.896Z,16.02
2022-11-03T19:54:26.317Z,16.08
2022-11-03T19:57:17.558Z,15.68
2022-11-03T20:00:17.069Z,16.92
2022-11-03T20:03:04.955Z,16.13
2022-11-03T20:05:56.653Z,14.45
2022-11-03T20:08:47.497Z,14.43
2022-11-03T20:11:35.865Z,15.23
2022-11-03T20:14:36.590Z,13.07
2022-11-03T20:17:24.719Z,14.85
2022-11-03T20:20:35.905Z,12.60
2022-11-03T20:23:31.817Z,17.85
2022-11-03T20:26:23.823Z,14.20
2022-11-03T20:29:13.577Z,16.75
2022-11-03T20:32:01.101Z,16.25
2022-11-03T20:34:51.528Z,20.25
2022-11-03T20:37:47.083Z,17.63
2022-11-03T20:40:35.209Z,20.67
2022-11-03T20:43:28.525Z,20.30
2022-11-03T20:46:18.656Z,20.45
2022-11-03T20:49:06.045Z,25.80
2022-11-03T20:51:54.454Z,19.83
2022-11-03T20:54:43.581Z,21.35
2022-11-03T20:57:30.869Z,21.60
2022-11-03T21:00:24.584Z,20.50
2022-11-03T21:06:34.487Z,26.40
2022-11-03T21:09:26.641Z,21.83
2022-11-03T21:12:16.476Z,21.95
2022-11-03T21:15:26.703Z,26.48
2022-11-03T21:18:36.409Z,29.17
2022-11-03T21:21:24.111Z,28.15
2022-11-03T21:24:14.750Z,31.63
2022-11-03T21:27:02.212Z,28.40
2022-11-03T21:29:58.942Z,31.38
2022-11-03T21:32:48.027Z,30.67
2022-11-03T21:35:35.602Z,27.52
2022-11-03T21:38:22.854Z,27.73
2022-11-03T21:41:28.363Z,22.42
2022-11-03T21:44:15.562Z,29.55
2022-11-03T21:47:02.860Z,26.70
2022-11-03T21:49:50.337Z,21.65
2022-11-03T21:52:37.642Z,23.40
2022-11-03T21:55:28.540Z,23.77
2022-11-03T21:58:18.461Z,20.00
2022-11-03T22:01:05.939Z,21.65
2022-11-03T22:03:54.932Z,25.88
2022-11-03T22:06:44.302Z,19.88
2022-11-03T22:09:37.359Z,20.33
2022-11-03T22:12:26.807Z,16.80
2022-11-03T22:15:32.707Z,18.83
2022-11-03T22:18:19.835Z,27.70
2022-11-03T22:21:27.556Z,23.55
2022-11-03T22:24:33.283Z,28.55
2022-11-03T22:27:20.471Z,20.70
2022-11-03T22:30:26.661Z,27.77
2022-11-03T22:33:13.818Z,22.60
2022-11-03T22:36:21.935Z,22.38
2022-11-03T22:39:41.500Z,24.33
2022-11-03T22:42:47.579Z,22.73
2022-11-03T22:45:54.417Z,18.48
2022-11-03T22:48:42.841Z,16.30
2022-11-03T22:51:30.362Z,16.73
2022-11-03T22:54:17.536Z,16.80
2022-11-03T22:57:04.650Z,12.15
2022-11-03T22:59:54.387Z,7.88
2022-11-03T23:02:41.615Z,6.85
2022-11-03T23:05:31.134Z,5.45
2022-11-03T23:08:18.258Z,4.25
2022-11-03T23:11:08.596Z,7.10
2022-11-03T23:14:00.171Z,2.83
2022-11-03T23:16:53.039Z,3.50
2022-11-03T23:19:58.743Z,3.50
2022-11-03T23:22:45.833Z,3.78
2022-11-03T23:25:32.870Z,6.00
2022-11-03T23:28:22.580Z,3.03
2022-11-03T23:31:10.387Z,3.55
2022-11-03T23:36:50.969Z,3.00
2022-11-03T23:39:38.177Z,2.47
2022-11-03T23:42:25.234Z,3.40
2022-11-03T23:45:30.861Z,1.70
2022-11-03T23:48:36.651Z,2.40
2022-11-03T23:51:28.383Z,1.58
2022-11-03T23:54:15.727Z,1.75
2022-11-03T23:57:41.361Z,3.58
